Time;durP1;ratioP1;P1;durP2;ratioP2;P2;SDS_P1;SDS_P2;PMS_P1;PMS_P2;Temp;Humidity;BMP_temperature;BMP_pressure;BME280_temperature;BME280_humidity;BME280_pressure;Samples;Min_cycle;Max_cycle;Signal;HPM_P1;HPM_P2
2022/02/01 00:00:16;;;;;;;5.87;5.00;;;2.50;99.90;;;;;;5014832;28;20202;-56
2022/02/01 00:02:50;;;;;;;5.60;5.10;;;2.50;99.90;;;;;;5015114;28;20572;-57
2022/02/01 00:05:35;;;;;;;5.63;5.13;;;2.50;99.90;;;;;;5014959;28;20168;-56
2022/02/01 00:08:19;;;;;;;5.80;5.30;;;2.50;99.90;;;;;;5014825;28;20265;-57
2022/02/01 00:13:23;;;;;;;5.30;4.80;;;2.60;99.90;;;;;;5014952;28;20185;-58
2022/02/01 00:35:12;;;;;;;5.07;4.63;;;2.70;99.90;;;;;;4992657;28;20358;-55
2022/02/01 00:37:50;;;;;;;4.90;4.40;;;2.80;99.90;;;;;;4994237;28;20200;-52
2022/02/01 00:40:16;;;;;;;4.67;4.17;;;2.70;99.90;;;;;;4994327;28;20180;-53
2022/02/01 00:42:41;;;;;;;4.80;4.40;;;2.70;99.90;;;;;;4992230;28;20205;-55
2022/02/01 00:45:07;;;;;;;4.60;4.20;;;2.70;99.90;;;;;;4993513;28;20200;-54
2022/02/01 00:47:33;;;;;;;4.20;3.90;;;2.80;99.90;;;;;;4994018;28;20203;-52
2022/02/01 00:49:59;;;;;;;5.00;4.50;;;2.80;99.90;;;;;;4994090;28;20665;-57
2022/02/01 00:52:27;;;;;;;4.33;3.93;;;2.80;99.90;;;;;;4992775;28;20201;-54
2022/02/01 00:54:52;;;;;;;4.30;3.90;;;2.90;99.90;;;;;;4992875;28;20208;-54
2022/02/01 00:57:18;;;;;;;4.33;3.93;;;2.90;99.90;;;;;;4993762;28;20177;-53
2022/02/01 00:59:44;;;;;;;4.30;3.90;;;2.90;99.90;;;;;;4993980;28;20184;-55
2022/02/01 01:02:10;;;;;;;4.13;3.80;;;2.90;99.90;;;;;;4993746;28;20213;-50
2022/02/01 01:04:35;;;;;;;4.30;3.90;;;2.70;99.90;;;;;;4991304;28;20177;-53
2022/02/01 01:07:01;;;;;;;4.10;3.80;;;2.70;99.90;;;;;;4993714;28;20188;-53
2022/02/01 01:09:27;;;;;;;3.70;3.40;;;2.60;99.90;;;;;;4993592;28;20177;-53
2022/02/01 01:11:56;;;;;;;4.13;3.73;;;2.70;99.90;;;;;;4993696;28;20235;-50
2022/02/01 01:38:56;;;;;;;3.00;2.80;;;3.10;99.90;;;;;;4993146;28;20220;-56
2022/02/01 01:44:09;;;;;;;3.43;3.13;;;2.90;99.90;;;;;;4993586;28;20248;-50
2022/02/01 01:54:49;;;;;;;3.27;2.97;;;3.00;99.90;;;;;;4993159;28;20235;-52
2022/02/01 01:57:16;;;;;;;3.20;3.00;;;3.10;99.90;;;;;;4993198;28;20176;-52
2022/02/01 01:59:42;;;;;;;3.33;3.03;;;3.10;99.90;;;;;;4993031;28;20184;-55
2022/02/01 02:02:07;;;;;;;3.80;3.50;;;3.10;99.90;;;;;;4993043;28;20253;-55
2022/02/01 02:04:33;;;;;;;4.13;3.53;;;3.10;99.90;;;;;;4993076;28;20252;-51
2022/02/01 02:06:59;;;;;;;3.27;3.03;;;3.10;99.90;;;;;;4993055;28;20173;-53
2022/02/01 02:09:24;;;;;;;3.23;3.00;;;3.00;99.90;;;;;;4992963;28;20210;-50
2022/02/01 02:11:57;;;;;;;3.50;3.20;;;2.90;99.90;;;;;;4992722;28;20181;-51
2022/02/01 02:14:24;;;;;;;3.93;3.63;;;3.10;99.90;;;;;;4992792;28;20581;-52
2022/02/01 02:16:52;;;;;;;3.50;3.20;;;3.20;99.90;;;;;;4992752;28;20212;-52
2022/02/01 02:19:19;;;;;;;3.20;3.00;;;3.20;99.90;;;;;;4992835;28;20569;-50
2022/02/01 02:21:55;;;;;;;3.77;3.47;;;3.20;99.90;;;;;;4992847;28;20173;-50
2022/02/01 02:24:22;;;;;;;3.30;3.00;;;3.20;99.90;;;;;;4992805;28;20200;-50
2022/02/01 02:26:49;;;;;;;3.90;3.60;;;3.10;99.90;;;;;;4992504;28;20177;-54
2022/02/01 02:29:15;;;;;;;3.27;3.03;;;3.10;99.90;;;;;;4991376;28;20279;-55
2022/02/01 02:31:41;;;;;;;3.43;3.13;;;3.10;99.90;;;;;;4992696;28;20188;-54
2022/02/01 02:34:12;;;;;;;3.27;3.07;;;3.10;99.90;;;;;;4992604;28;20232;-50
2022/02/01 02:36:44;;;;;;;3.27;2.97;;;3.00;99.90;;;;;;4992508;28;20204;-57
2022/02/01 02:39:34;;;;;;;3.23;3.03;;;3.00;99.90;;;;;;4992474;28;20180;-52
2022/02/01 02:42:12;;;;;;;3.50;3.20;;;3.00;99.90;;;;;;4992354;28;20192;-52
2022/02/01 02:47:25;;;;;;;3.57;3.27;;;3.20;99.90;;;;;;4992862;28;20176;-53
2022/02/01 02:49:51;;;;;;;3.60;3.30;;;3.30;99.90;;;;;;4992238;28;20177;-53
2022/02/01 02:52:17;;;;;;;3.23;3.00;;;3.40;99.90;;;;;;4991583;28;20597;-52
2022/02/01 02:54:43;;;;;;;3.73;3.43;;;3.40;99.90;;;;;;4992194;28;20748;-56
2022/02/01 02:57:09;;;;;;;3.30;3.10;;;3.30;99.90;;;;;;4992467;28;20643;-55
2022/02/01 02:59:36;;;;;;;3.47;3.17;;;3.20;99.90;;;;;;4992251;28;20172;-54
2022/02/01 03:02:04;;;;;;;3.53;3.23;;;3.40;99.90;;;;;;4992234;28;20177;-54
2022/02/01 03:04:31;;;;;;;4.23;3.83;;;3.50;99.90;;;;;;4991357;28;20623;-55
2022/02/01 03:06:58;;;;;;;3.80;3.50;;;3.60;99.90;;;;;;4992310;28;20173;-52
2022/02/01 03:09:25;;;;;;;3.40;3.10;;;3.60;99.90;;;;;;4992162;28;20235;-50
2022/02/01 03:11:55;;;;;;;3.77;3.47;;;3.70;99.90;;;;;;4992385;28;20169;-57
2022/02/01 03:14:25;;;;;;;3.53;3.00;;;3.80;99.90;;;;;;4992117;28;20635;-52
2022/02/01 03:19:58;;;;;;;3.40;3.20;;;3.90;99.90;;;;;;4992141;28;20184;-53
2022/02/01 03:22:26;;;;;;;4.20;3.80;;;3.90;99.90;;;;;;4992021;28;20208;-51
2022/02/01 03:24:54;;;;;;;3.60;3.30;;;3.90;99.90;;;;;;4992073;28;20193;-53
2022/02/01 03:27:20;;;;;;;3.50;3.20;;;4.00;99.90;;;;;;4990940;28;20255;-52
2022/02/01 03:29:47;;;;;;;2.93;2.73;;;4.00;99.90;;;;;;4992009;28;20586;-54
2022/02/01 03:32:13;;;;;;;3.50;3.20;;;4.10;99.90;;;;;;4991999;28;20173;-55
2022/02/01 03:34:38;;;;;;;3.07;2.80;;;4.10;99.90;;;;;;4991839;28;20177;-54
2022/02/01 03:37:05;;;;;;;2.60;2.40;;;4.20;99.90;;;;;;4992148;28;20179;-51
2022/02/01 03:39:31;;;;;;;3.43;3.13;;;4.20;99.90;;;;;;4991879;28;20204;-56
2022/02/01 03:41:56;;;;;;;3.30;3.00;;;4.10;99.90;;;;;;4991981;28;20422;-55
2022/02/01 03:44:22;;;;;;;2.90;2.70;;;4.10;99.90;;;;;;4991998;28;20200;-52
2022/02/01 03:47:01;;;;;;;2.90;2.70;;;4.10;99.90;;;;;;4992036;28;20217;-56
2022/02/01 03:49:31;;;;;;;2.53;2.33;;;4.10;99.90;;;;;;4991787;28;20173;-50
2022/02/01 03:51:58;;;;;;;2.23;2.10;;;4.10;99.90;;;;;;4992126;28;20173;-55
2022/02/01 03:54:26;;;;;;;2.33;2.13;;;4.10;99.90;;;;;;4991898;28;20189;-55
2022/02/01 03:56:52;;;;;;;1.77;1.67;;;4.00;99.90;;;;;;4991773;28;20201;-50
2022/02/01 03:59:19;;;;;;;1.70;1.60;;;4.10;99.90;;;;;;4991791;28;20616;-51
2022/02/01 04:01:44;;;;;;;3.10;1.90;;;4.00;99.90;;;;;;4991918;28;20539;-55
2022/02/01 04:04:12;;;;;;;2.10;2.00;;;3.90;99.90;;;;;;4993909;28;20189;-52
2022/02/01 04:06:38;;;;;;;2.10;2.00;;;3.80;99.90;;;;;;4995303;28;20207;-54
2022/02/01 04:09:03;;;;;;;2.13;1.93;;;3.70;99.90;;;;;;4995085;28;20208;-55
2022/02/01 04:11:29;;;;;;;2.10;1.90;;;3.50;99.90;;;;;;4995205;28;20218;-53
2022/02/01 04:13:54;;;;;;;2.13;2.00;;;3.40;99.90;;;;;;4995199;28;20193;-53
2022/02/01 04:16:20;;;;;;;2.30;2.10;;;3.30;99.90;;;;;;4994969;28;20213;-51
2022/02/01 04:18:45;;;;;;;1.93;1.73;;;3.20;99.90;;;;;;4995002;28;20261;-55
2022/02/01 04:21:11;;;;;;;2.30;2.10;;;3.20;99.90;;;;;;4995078;28;20174;-51
2022/02/01 04:23:36;;;;;;;2.57;2.30;;;3.20;99.90;;;;;;4994952;28;20283;-52
2022/02/01 04:26:02;;;;;;;2.77;2.30;;;3.10;99.90;;;;;;4994930;28;20174;-53
2022/02/01 04:28:28;;;;;;;2.43;2.23;;;3.20;99.90;;;;;;4994692;28;20173;-54
2022/02/01 04:30:53;;;;;;;2.67;2.47;;;3.00;99.90;;;;;;4994980;28;20181;-52
2022/02/01 04:33:19;;;;;;;2.50;2.30;;;3.00;99.90;;;;;;4994726;28;20581;-54
2022/02/01 04:35:44;;;;;;;3.00;2.43;;;3.00;99.90;;;;;;4994637;28;20661;-55
2022/02/01 04:38:10;;;;;;;2.30;2.20;;;3.10;99.90;;;;;;4994447;28;20208;-54
2022/02/01 04:40:35;;;;;;;2.37;2.17;;;3.20;99.90;;;;;;4995008;28;20252;-54
2022/02/01 04:43:03;;;;;;;2.50;2.30;;;3.30;99.90;;;;;;4994779;28;20221;-56
2022/02/01 04:45:29;;;;;;;2.60;2.30;;;3.30;99.90;;;;;;4994500;28;20181;-52
2022/02/01 04:47:55;;;;;;;2.43;2.23;;;3.20;99.90;;;;;;4994547;28;20187;-50
2022/02/01 04:50:25;;;;;;;2.53;2.20;;;3.10;99.90;;;;;;4994551;28;20597;-55
2022/02/01 04:52:54;;;;;;;2.40;2.20;;;3.10;99.90;;;;;;4994525;28;20197;-55
2022/02/01 04:55:24;;;;;;;3.47;2.30;;;3.20;99.90;;;;;;4994244;28;20612;-53
2022/02/01 04:57:59;;;;;;;2.23;2.03;;;3.20;99.90;;;;;;4994506;28;20264;-56
2022/02/01 05:00:28;;;;;;;2.50;2.30;;;3.20;99.90;;;;;;4994402;28;20195;-56
2022/02/01 05:02:58;;;;;;;2.60;2.40;;;3.30;99.90;;;;;;4994187;28;20215;-55
2022/02/01 05:05:31;;;;;;;2.60;2.40;;;3.50;99.90;;;;;;4994188;28;20232;-51
2022/02/01 05:08:08;;;;;;;2.60;2.40;;;3.50;99.90;;;;;;4994148;28;20188;-55
2022/02/01 05:10:35;;;;;;;4.13;2.70;;;3.50;99.90;;;;;;4994244;28;20177;-52
2022/02/01 05:15:51;;;;;;;2.70;2.50;;;3.40;99.90;;;;;;4993309;28;20213;-52
2022/02/01 05:18:21;;;;;;;3.13;2.60;;;3.20;99.90;;;;;;4993931;28;20174;-55
2022/02/01 05:20:58;;;;;;;3.03;2.80;;;3.10;99.90;;;;;;4993941;28;20257;-51
2022/02/01 05:23:24;;;;;;;2.50;2.30;;;3.10;99.90;;;;;;4993937;28;20185;-51
2022/02/01 05:25:50;;;;;;;3.17;2.80;;;2.90;99.90;;;;;;4993729;28;20177;-55
2022/02/01 05:28:17;;;;;;;2.87;2.63;;;2.80;99.90;;;;;;4993689;28;20185;-54
2022/02/01 05:30:43;;;;;;;3.40;3.10;;;2.80;99.90;;;;;;4993719;28;20209;-52
2022/02/01 05:33:08;;;;;;;3.57;3.10;;;2.90;99.90;;;;;;4993613;28;20725;-57
2022/02/01 05:35:34;;;;;;;3.40;3.10;;;2.90;99.90;;;;;;4993365;28;20704;-55
2022/02/01 05:37:59;;;;;;;3.70;3.03;;;2.90;99.90;;;;;;4993313;28;20184;-52
2022/02/01 05:40:26;;;;;;;3.70;3.37;;;2.80;99.90;;;;;;4993332;28;20661;-53
2022/02/01 05:43:00;;;;;;;4.10;3.57;;;2.70;99.90;;;;;;4993600;28;20189;-52
2022/02/01 05:45:26;;;;;;;4.00;3.60;;;2.70;99.90;;;;;;4993478;28;20189;-51
2022/02/01 05:47:52;;;;;;;3.97;3.37;;;2.80;99.90;;;;;;4993550;28;20456;-52
2022/02/01 05:50:18;;;;;;;5.10;3.40;;;2.90;99.90;;;;;;4993315;28;20177;-53
2022/02/01 05:52:44;;;;;;;3.80;3.50;;;3.00;99.90;;;;;;4993377;28;20204;-51
2022/02/01 05:55:14;;;;;;;4.90;4.40;;;2.80;99.90;;;;;;4993119;28;20197;-52
2022/02/01 05:57:40;;;;;;;5.50;4.40;;;2.50;99.90;;;;;;4993340;28;20599;-54
2022/02/01 06:00:07;;;;;;;5.10;4.60;;;2.30;99.90;;;;;;4993056;28;20173;-52
2022/02/01 06:02:32;;;;;;;5.93;4.73;;;2.20;99.90;;;;;;4993191;28;20204;-52
2022/02/01 06:04:58;;;;;;;5.87;4.90;;;2.10;99.90;;;;;;4993089;28;20177;-53
2022/02/01 06:07:23;;;;;;;6.03;5.17;;;2.00;99.90;;;;;;4993149;28;20173;-50
2022/02/01 06:09:49;;;;;;;7.27;5.00;;;1.90;99.90;;;;;;4992782;28;20189;-56
2022/02/01 06:12:14;;;;;;;7.67;5.83;;;1.90;99.90;;;;;;4992983;28;20177;-54
2022/02/01 06:14:40;;;;;;;7.97;5.87;;;1.90;99.90;;;;;;4993071;28;20177;-55
2022/02/01 06:17:07;;;;;;;8.70;6.20;;;1.80;99.90;;;;;;4992922;28;20669;-52
2022/02/01 06:19:34;;;;;;;8.67;6.20;;;1.80;99.90;;;;;;4992721;28;20169;-53
2022/02/01 06:22:01;;;;;;;7.63;6.10;;;1.80;99.90;;;;;;4992772;28;20203;-50
2022/02/01 06:24:27;;;;;;;9.87;6.60;;;1.80;99.90;;;;;;4992810;28;20174;-50
2022/02/01 06:26:53;;;;;;;8.43;6.67;;;1.90;99.90;;;;;;4992557;28;20181;-53
2022/02/01 06:29:18;;;;;;;8.47;6.53;;;1.80;99.90;;;;;;4992625;28;20181;-52
2022/02/01 06:31:44;;;;;;;9.70;6.30;;;1.80;99.90;;;;;;4992823;28;20173;-55
2022/02/01 06:34:09;;;;;;;8.20;6.90;;;1.90;99.90;;;;;;5049667;22;20613;-57
2022/02/01 06:36:35;;;;;;;10.73;7.30;;;1.90;99.90;;;;;;4991319;28;20197;-54
2022/02/01 06:39:00;;;;;;;7.93;6.47;;;2.10;99.90;;;;;;4992047;28;20185;-60
2022/02/01 06:41:26;;;;;;;8.60;6.17;;;2.10;99.90;;;;;;4992498;28;20627;-56
2022/02/01 06:43:51;;;;;;;8.43;6.40;;;2.00;99.90;;;;;;4974685;28;20189;-58
2022/02/01 06:46:17;;;;;;;7.97;5.93;;;1.90;99.90;;;;;;4992062;28;20204;-54
2022/02/01 06:48:43;;;;;;;10.50;6.97;;;1.90;99.90;;;;;;4992115;28;20180;-58
2022/02/01 06:51:09;;;;;;;10.30;6.90;;;2.00;99.90;;;;;;4991039;28;20183;-56
2022/02/01 06:53:37;;;;;;;11.77;7.00;;;2.00;99.90;;;;;;4991309;28;20200;-60
2022/02/01 06:56:08;;;;;;;10.10;7.20;;;1.90;99.90;;;;;;4987294;28;20225;-62
2022/02/01 06:58:34;;;;;;;9.43;7.17;;;1.90;99.90;;;;;;4986968;28;20219;-60
2022/02/01 07:01:00;;;;;;;10.33;6.93;;;1.80;99.90;;;;;;4975108;28;20279;-60
2022/02/01 07:03:25;;;;;;;9.57;6.73;;;1.70;99.90;;;;;;4992283;28;20283;-57
2022/02/01 07:05:51;;;;;;;9.13;7.03;;;1.70;99.90;;;;;;4974549;28;20173;-56
2022/02/01 07:08:16;;;;;;;9.10;6.50;;;1.70;99.90;;;;;;4990668;28;20181;-58
2022/02/01 07:10:42;;;;;;;10.13;6.90;;;1.60;99.90;;;;;;4974900;28;20208;-57
2022/02/01 07:13:08;;;;;;;9.10;6.50;;;1.60;99.90;;;;;;4974948;28;20205;-56
2022/02/01 07:15:34;;;;;;;8.67;6.40;;;1.60;99.90;;;;;;4992267;28;20212;-58
2022/02/01 07:18:00;;;;;;;9.30;6.63;;;1.60;99.90;;;;;;4975582;28;20549;-59
2022/02/01 07:20:26;;;;;;;10.40;6.67;;;1.60;99.90;;;;;;4992589;28;20599;-59
2022/02/01 07:22:52;;;;;;;7.90;6.07;;;1.50;99.90;;;;;;4992428;28;20193;-54
2022/02/01 07:25:28;;;;;;;10.03;6.43;;;1.60;99.90;;;;;;4991256;28;20583;-59
2022/02/01 07:27:55;;;;;;;7.97;5.97;;;1.60;99.90;;;;;;4991906;28;20173;-58
2022/02/01 07:30:24;;;;;;;7.30;5.87;;;1.70;99.90;;;;;;4992015;28;20173;-56
2022/02/01 07:32:54;;;;;;;7.23;5.70;;;1.70;99.90;;;;;;4991761;28;20201;-57
2022/02/01 07:35:22;;;;;;;8.87;6.20;;;1.70;99.90;;;;;;4991988;28;20204;-60
2022/02/01 07:37:48;;;;;;;9.37;5.93;;;1.80;99.90;;;;;;4992185;28;20589;-55
2022/02/01 07:40:14;;;;;;;6.40;5.20;;;1.80;99.90;;;;;;4995460;28;20208;-61
2022/02/01 07:42:40;;;;;;;6.80;5.53;;;1.80;99.90;;;;;;4995354;28;20204;-58
2022/02/01 07:45:08;;;;;;;5.77;4.67;;;1.70;99.90;;;;;;4995398;28;20177;-56
2022/02/01 07:47:34;;;;;;;5.97;4.83;;;1.70;99.90;;;;;;4995489;28;20173;-55
2022/02/01 07:50:00;;;;;;;5.10;4.50;;;1.70;99.90;;;;;;4995188;28;20170;-54
2022/02/01 07:52:25;;;;;;;5.13;4.50;;;1.80;99.90;;;;;;4995346;28;20627;-59
2022/02/01 07:54:51;;;;;;;6.53;4.83;;;1.90;99.90;;;;;;4995268;28;20201;-60
2022/02/01 07:57:16;;;;;;;5.77;4.77;;;2.00;99.90;;;;;;4995286;28;20169;-58
2022/02/01 07:59:42;;;;;;;6.50;4.70;;;2.00;99.90;;;;;;4995314;28;20252;-55
2022/02/01 08:02:19;;;;;;;5.60;4.30;;;1.90;99.90;;;;;;4995032;28;20176;-57
2022/02/01 08:04:48;;;;;;;5.20;4.50;;;1.90;99.90;;;;;;4995083;28;20332;-58
2022/02/01 08:07:15;;;;;;;4.83;4.23;;;1.90;99.90;;;;;;4995060;28;20173;-57
2022/02/01 08:09:44;;;;;;;5.50;4.30;;;1.90;99.90;;;;;;4995042;28;20223;-55
2022/02/01 08:12:27;;;;;;;4.93;4.20;;;1.90;99.90;;;;;;4995098;28;20173;-58
2022/02/01 08:20:03;;;;;;;6.63;4.70;;;2.00;99.90;;;;;;4994706;28;20706;-56
2022/02/01 08:24:58;;;;;;;6.40;4.37;;;2.00;99.90;;;;;;4994493;28;20596;-55
2022/02/01 08:27:24;;;;;;;7.00;5.10;;;2.00;99.90;;;;;;4961455;28;20178;-58
2022/02/01 08:29:50;;;;;;;5.80;4.70;;;1.90;99.90;;;;;;4977021;28;20655;-57
2022/02/01 08:32:16;;;;;;;6.73;4.80;;;1.80;99.90;;;;;;4994701;28;20177;-59
2022/02/01 08:34:42;;;;;;;5.90;4.93;;;1.90;99.90;;;;;;4994439;28;20212;-53
2022/02/01 08:37:08;;;;;;;5.83;4.73;;;1.80;99.90;;;;;;4994555;28;20232;-61
2022/02/01 08:39:33;;;;;;;6.43;4.73;;;1.80;99.90;;;;;;4977168;28;20654;-55
2022/02/01 08:41:59;;;;;;;6.40;4.97;;;1.80;99.90;;;;;;4977175;28;20184;-55
2022/02/01 08:44:28;;;;;;;6.97;5.27;;;1.80;99.90;;;;;;4977153;28;20193;-58
2022/02/01 08:46:55;;;;;;;7.80;6.10;;;1.90;99.90;;;;;;4994532;28;20173;-57
2022/02/01 08:49:21;;;;;;;7.97;5.33;;;1.90;99.90;;;;;;4994404;28;20188;-54
2022/02/01 08:51:56;;;;;;;8.57;5.87;;;1.80;99.90;;;;;;4994325;28;20173;-56
2022/02/01 08:54:26;;;;;;;7.77;5.90;;;1.80;99.90;;;;;;4994304;28;20207;-57
2022/02/01 08:59:36;;;;;;;7.93;5.40;;;1.80;99.90;;;;;;4994418;28;20204;-56
2022/02/01 09:02:03;;;;;;;7.77;6.07;;;1.80;99.90;;;;;;4994361;28;20607;-55
2022/02/01 09:04:29;;;;;;;10.13;6.70;;;1.70;99.90;;;;;;4993865;28;20229;-59
2022/02/01 09:06:55;;;;;;;8.43;6.30;;;1.70;99.90;;;;;;4994313;28;20173;-54
2022/02/01 09:09:20;;;;;;;8.50;6.47;;;1.70;99.90;;;;;;4993920;28;20173;-57
2022/02/01 09:11:48;;;;;;;9.20;7.00;;;1.60;99.90;;;;;;4994286;28;20654;-59
2022/02/01 09:14:14;;;;;;;9.17;6.80;;;1.60;99.90;;;;;;4993851;28;20671;-58
2022/02/01 09:16:40;;;;;;;10.50;7.50;;;1.60;99.90;;;;;;4993747;28;20686;-57
2022/02/01 09:19:06;;;;;;;9.27;7.47;;;1.60;99.90;;;;;;4993731;28;20181;-57
2022/02/01 09:21:31;;;;;;;10.40;8.20;;;1.50;99.90;;;;;;4993795;28;20176;-58
2022/02/01 09:23:57;;;;;;;9.33;7.17;;;1.50;99.90;;;;;;4993859;28;20295;-58
2022/02/01 09:26:23;;;;;;;10.93;7.83;;;1.50;99.90;;;;;;4993603;28;20173;-57
2022/02/01 09:28:50;;;;;;;24.57;14.10;;;1.50;99.90;;;;;;4993667;28;20173;-59
2022/02/01 09:31:16;;;;;;;11.10;8.33;;;1.50;99.90;;;;;;4993804;28;20578;-62
2022/02/01 09:33:42;;;;;;;10.57;7.77;;;1.60;99.90;;;;;;4993365;28;20221;-61
2022/02/01 09:36:07;;;;;;;11.30;7.67;;;1.60;99.90;;;;;;4993466;28;20201;-58
2022/02/01 09:38:34;;;;;;;10.17;8.30;;;1.60;99.90;;;;;;4993331;28;20175;-59
2022/02/01 09:41:00;;;;;;;12.40;7.77;;;3.00;99.90;;;;;;4976258;28;20179;-63
2022/02/01 09:43:26;;;;;;;11.60;9.00;;;1.60;99.90;;;;;;4993318;28;20307;-60
2022/02/01 09:45:54;;;;;;;11.33;8.83;;;1.50;99.90;;;;;;4993376;28;20267;-59
2022/02/01 09:48:19;;;;;;;12.00;8.80;;;1.50;99.90;;;;;;4993198;28;20718;-57
2022/02/01 09:50:45;;;;;;;11.80;8.90;;;1.50;99.90;;;;;;4993193;28;20259;-59
2022/02/01 09:53:10;;;;;;;11.07;7.97;;;1.60;99.90;;;;;;4993325;28;20192;-60
2022/02/01 09:55:36;;;;;;;10.83;7.87;;;1.60;99.90;;;;;;4992998;28;20192;-59
2022/02/01 09:58:02;;;;;;;11.47;9.03;;;1.60;99.90;;;;;;4993260;28;20177;-58
2022/02/01 10:00:52;;;;;;;13.73;9.37;;;1.50;99.90;;;;;;4992921;28;20204;-59
2022/02/01 10:03:19;;;;;;;13.77;9.13;;;1.50;99.90;;;;;;4993182;28;20223;-60
2022/02/01 10:06:14;;;;;;;13.47;9.07;;;1.50;99.90;;;;;;4993083;28;20177;-58
2022/02/01 10:08:40;;;;;;;12.97;9.57;;;1.50;99.90;;;;;;4992956;28;20169;-58
2022/02/01 10:11:10;;;;;;;13.10;9.40;;;1.50;99.90;;;;;;4993389;28;20232;-56
2022/02/01 10:13:45;;;;;;;12.53;8.47;;;1.50;99.90;;;;;;4993277;28;20196;-59
2022/02/01 10:16:30;;;;;;;10.87;8.30;;;1.50;99.90;;;;;;4991807;28;20208;-60
2022/02/01 10:19:06;;;;;;;10.80;8.13;;;1.50;99.90;;;;;;4992802;28;20145;-55
2022/02/01 10:21:31;;;;;;;9.90;7.47;;;1.40;99.90;;;;;;4992987;28;20192;-60
2022/02/01 10:24:04;;;;;;;13.03;9.13;;;1.50;99.90;;;;;;4992503;28;20197;-58
2022/02/01 10:26:30;;;;;;;12.53;8.60;;;1.50;99.90;;;;;;4992809;28;20647;-57
2022/02/01 10:29:05;;;;;;;10.83;8.33;;;1.60;99.90;;;;;;4992557;28;20174;-59
2022/02/01 10:31:44;;;;;;;11.23;8.13;;;1.60;99.90;;;;;;4992084;28;20169;-58
2022/02/01 10:37:04;;;;;;;13.00;7.30;;;1.50;99.90;;;;;;4992307;28;20201;-59
2022/02/01 10:39:33;;;;;;;10.47;7.50;;;1.50;99.90;;;;;;4992184;28;20252;-60
2022/02/01 10:42:04;;;;;;;13.43;7.40;;;1.50;99.90;;;;;;4992160;28;20213;-58
2022/02/01 10:44:41;;;;;;;10.30;6.20;;;1.60;99.90;;;;;;4992263;28;20192;-56
2022/02/01 10:47:09;;;;;;;10.53;4.80;;;1.70;99.90;;;;;;4992449;28;20184;-57
2022/02/01 10:49:35;;;;;;;9.20;4.90;;;1.80;99.90;;;;;;4992310;28;20543;-59
2022/02/01 10:52:07;;;;;;;10.17;4.50;;;1.80;99.90;;;;;;4992385;28;20192;-59
2022/02/01 10:54:38;;;;;;;9.47;4.73;;;1.90;99.90;;;;;;4992146;28;20574;-60
2022/02/01 10:57:06;;;;;;;10.40;4.93;;;1.90;99.90;;;;;;4992362;28;20728;-59
2022/02/01 10:59:33;;;;;;;8.30;3.50;;;2.00;99.90;;;;;;4992082;28;20165;-58
2022/02/01 11:02:03;;;;;;;10.67;4.50;;;2.00;99.90;;;;;;4992061;28;20174;-58
2022/02/01 11:04:33;;;;;;;12.30;4.97;;;1.90;99.90;;;;;;4992092;28;20189;-61
2022/02/01 11:06:59;;;;;;;12.60;4.00;;;1.90;99.90;;;;;;4992280;28;20550;-56
2022/02/01 11:09:29;;;;;;;9.83;4.17;;;1.90;99.90;;;;;;4991746;28;20185;-58
2022/02/01 11:12:10;;;;;;;13.30;3.93;;;1.90;99.90;;;;;;4992126;28;20191;-58
2022/02/01 11:14:42;;;;;;;9.73;3.83;;;2.00;99.90;;;;;;4994549;28;20701;-59
2022/02/01 11:17:09;;;;;;;12.60;4.13;;;2.00;99.90;;;;;;4995917;28;20205;-57
2022/02/01 11:19:52;;;;;;;12.80;4.17;;;2.10;99.90;;;;;;4995857;28;20169;-57
2022/02/01 11:22:19;;;;;;;11.87;3.67;;;2.00;99.90;;;;;;4995469;28;20180;-57
2022/02/01 11:24:51;;;;;;;9.97;3.63;;;2.20;99.90;;;;;;4991452;28;20193;-54
2022/02/01 11:27:19;;;;;;;12.10;4.17;;;2.10;99.90;;;;;;4986427;28;20181;-58
2022/02/01 11:32:38;;;;;;;11.90;3.50;;;2.10;99.90;;;;;;4985963;28;20232;-56
2022/02/01 11:35:10;;;;;;;13.03;3.53;;;2.20;99.90;;;;;;4969779;28;20173;-57
2022/02/01 11:37:53;;;;;;;8.57;3.37;;;2.20;99.90;;;;;;4970389;28;20169;-60
2022/02/01 11:40:21;;;;;;;10.27;3.40;;;2.20;99.90;;;;;;4976049;28;20185;-58
2022/02/01 11:42:56;;;;;;;12.33;3.00;;;2.20;99.90;;;;;;4984697;28;20220;-56
2022/02/01 11:45:37;;;;;;;13.13;3.67;;;2.20;99.90;;;;;;4992252;28;20180;-53
2022/02/01 11:48:19;;;;;;;8.33;3.50;;;2.10;99.90;;;;;;4985516;28;20181;-58
2022/02/01 11:50:49;;;;;;;11.23;3.27;;;2.10;99.90;;;;;;4984591;28;20170;-59
2022/02/01 11:53:21;;;;;;;13.67;3.30;;;2.10;99.90;;;;;;4983530;28;20715;-52
2022/02/01 11:55:49;;;;;;;8.37;3.33;;;2.10;99.90;;;;;;4966858;28;20206;-56
2022/02/01 11:58:27;;;;;;;16.57;3.80;;;2.20;99.90;;;;;;4986064;28;20212;-55
2022/02/01 12:00:53;;;;;;;13.67;4.87;;;2.20;99.90;;;;;;4986193;28;20284;-57
2022/02/01 12:03:21;;;;;;;9.97;3.30;;;2.20;99.90;;;;;;4967513;28;20902;-58
2022/02/01 12:05:57;;;;;;;13.07;3.40;;;2.20;99.90;;;;;;4995262;28;20185;-56
2022/02/01 12:08:28;;;;;;;10.63;3.10;;;2.20;99.90;;;;;;4991853;28;20208;-59
2022/02/01 12:10:58;;;;;;;13.70;4.10;;;2.20;99.90;;;;;;4977976;28;20598;-58
2022/02/01 12:13:25;;;;;;;12.63;4.50;;;2.20;99.90;;;;;;4995085;28;20276;-57
2022/02/01 12:15:54;;;;;;;10.87;3.90;;;2.10;99.90;;;;;;4994659;28;20553;-55
2022/02/01 12:18:42;;;;;;;9.23;3.37;;;2.10;99.90;;;;;;4984394;28;20236;-58
2022/02/01 12:21:28;;;;;;;14.90;4.03;;;2.10;99.90;;;;;;4986549;28;20177;-54
2022/02/01 12:23:57;;;;;;;10.83;3.70;;;2.10;99.90;;;;;;4984966;28;20190;-59
2022/02/01 12:26:28;;;;;;;11.57;4.00;;;2.00;99.90;;;;;;4971531;28;20170;-58
2022/02/01 12:28:57;;;;;;;12.50;3.43;;;2.00;99.90;;;;;;4958770;28;20187;-55
2022/02/01 12:31:25;;;;;;;11.77;4.23;;;2.00;99.90;;;;;;4979456;28;20181;-57
2022/02/01 12:33:53;;;;;;;14.10;4.00;;;2.00;99.90;;;;;;4962880;28;20760;-52
2022/02/01 12:36:28;;;;;;;12.50;4.00;;;2.00;99.90;;;;;;4994842;28;20279;-56
2022/02/01 12:39:03;;;;;;;9.67;3.80;;;2.00;99.90;;;;;;4996031;28;20181;-60
2022/02/01 12:41:33;;;;;;;9.10;3.83;;;2.00;99.90;;;;;;4982834;28;20219;-55
2022/02/01 12:46:46;;;;;;;11.17;3.60;;;2.00;99.90;;;;;;4979808;28;20183;-56
2022/02/01 12:49:13;;;;;;;12.03;3.97;;;2.10;99.90;;;;;;5004180;28;20181;-58
2022/02/01 12:51:48;;;;;;;12.47;4.13;;;3.50;99.90;;;;;;4997190;28;20213;-54
2022/02/01 12:54:26;;;;;;;11.17;3.63;;;2.10;99.90;;;;;;4995572;28;20197;-57
2022/02/01 12:57:04;;;;;;;12.30;4.30;;;2.00;99.90;;;;;;4961692;28;20224;-58
2022/02/01 12:59:41;;;;;;;13.53;3.97;;;2.00;99.90;;;;;;4994154;28;20177;-58
2022/02/01 13:02:16;;;;;;;17.50;4.30;;;2.00;99.90;;;;;;4961048;28;20192;-58
2022/02/01 13:04:43;;;;;;;10.17;4.13;;;1.90;99.90;;;;;;4976614;28;20342;-60
2022/02/01 13:07:43;;;;;;;14.00;3.83;;;2.00;99.90;;;;;;4993919;28;20644;-58
2022/02/01 13:13:07;;;;;;;14.13;3.63;;;1.90;99.90;;;;;;4979973;28;20230;-57
2022/02/01 13:15:41;;;;;;;13.93;3.80;;;1.90;99.90;;;;;;4980359;28;20204;-53
2022/02/01 13:20:06;;;;;;;9.60;3.77;;;1.90;99.90;;;;;;4993772;28;20189;-55
2022/02/01 13:21:16;;;;;;;10.20;3.77;;;2.00;99.90;;;;;;4971662;28;20243;-56
2022/02/01 13:23:51;;;;;;;13.57;4.43;;;2.00;99.90;;;;;;4976790;28;20670;-55
2022/02/01 13:26:26;;;;;;;12.20;3.93;;;2.00;99.90;;;;;;4993679;28;20187;-57
2022/02/01 13:29:05;;;;;;;12.40;3.83;;;2.00;99.90;;;;;;4977035;28;20181;-50
2022/02/01 13:31:36;;;;;;;11.63;3.93;;;1.90;99.90;;;;;;4993694;28;20177;-56
2022/02/01 13:34:04;;;;;;;15.33;4.10;;;1.90;99.90;;;;;;4960799;28;20609;-54
2022/02/01 13:36:45;;;;;;;15.70;3.93;;;1.90;99.90;;;;;;4975885;28;20213;-53
2022/02/01 13:39:48;;;;;;;10.23;3.63;;;1.80;99.90;;;;;;4976441;28;20243;-52
2022/02/01 13:42:14;;;;;;;11.00;4.03;;;1.70;99.90;;;;;;4978280;28;20655;-52
2022/02/01 13:44:53;;;;;;;10.77;3.70;;;1.60;99.90;;;;;;4975863;28;20193;-55
2022/02/01 13:47:19;;;;;;;12.23;3.70;;;1.60;99.90;;;;;;4960131;28;20551;-51
2022/02/01 13:49:45;;;;;;;14.57;4.17;;;1.50;99.90;;;;;;4975561;28;20177;-53
2022/02/01 13:52:11;;;;;;;13.20;3.90;;;1.40;99.90;;;;;;4975980;28;20639;-52
2022/02/01 13:54:45;;;;;;;10.40;4.17;;;1.30;99.90;;;;;;4975764;28;20205;-58
2022/02/01 13:57:14;;;;;;;11.17;3.43;;;1.30;99.90;;;;;;4976627;28;20216;-56
2022/02/01 13:59:40;;;;;;;9.67;3.17;;;1.30;99.90;;;;;;4975699;28;20381;-56
2022/02/01 14:02:16;;;;;;;12.83;3.67;;;1.30;99.90;;;;;;4976074;28;20173;-57
2022/02/01 14:04:58;;;;;;;11.73;3.40;;;3.10;99.90;;;;;;4976790;28;20523;-55
2022/02/01 14:25:48;;;;;;;8.97;3.30;;;1.60;99.90;;;;;;4975173;28;20178;-56
2022/02/01 14:33:39;;;;;;;9.73;3.27;;;1.60;99.90;;;;;;4977948;28;20275;-55
2022/02/01 14:36:06;;;;;;;12.90;3.50;;;1.50;99.90;;;;;;4974977;28;20753;-56
2022/02/01 14:44:25;;;;;;;8.50;3.53;;;1.40;99.90;;;;;;4970129;28;20207;-57
2022/02/01 14:46:49;;;;;;;7.53;3.63;;;1.40;99.90;;;;;;4972601;28;20516;-56
2022/02/01 14:49:15;;;;;;;10.17;3.93;;;1.40;99.90;;;;;;4972649;28;20186;-56
2022/02/01 14:51:40;;;;;;;7.53;3.67;;;1.30;99.90;;;;;;4972624;28;20554;-57
2022/02/01 14:54:08;;;;;;;9.27;3.67;;;1.30;99.90;;;;;;4956136;28;20614;-59
2022/02/01 14:56:37;;;;;;;9.53;3.63;;;1.30;99.90;;;;;;4971397;28;20284;-57
2022/02/01 15:07:06;;;;;;;7.57;4.00;;;1.20;99.90;;;;;;4972894;28;20178;-56